S37 weather

Smoketown Airport
Smoketown, Pennsylvania, United States

Public forecast

Using degrees Fahrenheit for public forecast. Weather courtesy of forecast.io.

METAR (pilot weather report)

Closest report is Lancaster Airport, 6.5 nm (12.0 km) NW. Retrieved 2019/09/23 06:53 UTC (58 minutes ago):

KLNS 230653Z AUTO 00000KT 9SM CLR 21/18 A2996 RMK AO2 SLP143 T02060178

TAF (pilot weather forecast)

Closest forecast is Lancaster Airport, 6.5 nm (12.0 km) NW. Retrieved 2019/09/23 06:00 UTC (2 hours ago):

TAF KLNS 230558Z 2306/2406 VRB03KT P6SM FEW250 FM231000 VRB02KT 5SM BR SKC FM231300 26008KT P6SM SCT200 FM231700 24010KT P6SM BKN100 FM232100 26010G20KT P6SM -SHRA SCT025 BKN050 FM240300 29007KT P6SM SCT040